Nearby METAR Reports

 

KAVP - Avoca/Wilkes B., Pennsylvania, USA
Distance from station: SW 13mi, 22km
Updated: Sun, 05-Apr-2020 12:54 EDT
Overcast
Overcast
 Wind from SW
Wind: SW 9 mph , 15 km/h
Temperature: 57°F , 14°C
Dew Point: 43°F , 6°C
Humidity: 59%
Barometer: 30.02 inHg , 1016.6 hPa
Clouds: Overcast
Visibility: 10 miles , 16 km
Cloud details: Overcast 4900 ft
2020/04/05 16:54 KAVP 051654Z 23008KT 10SM OVC049 14/06 A3002 RMK AO2 SLP165 T01390056
KMPO - Mt. Pocono, Pennsylvania, USA
Distance from station: SSE 26mi, 43km
Updated: Sun, 05-Apr-2020 12:53 EDT
Overcast
Overcast
 Wind from W
Wind: W 15 mph , 24 km/h
Temperature: 55°F , 13°C
Dew Point: 41°F , 5°C
Humidity: 59%
Barometer: 30.01 inHg , 1016.3 hPa
Clouds: Overcast
Visibility: 10 miles , 16 km
Cloud details: Partly cloudy 3400 ft
Overcast 5000 ft
2020/04/05 16:53 KMPO 051653Z AUTO 28013KT 10SM SCT034 OVC050 13/05 A3001 RMK AO2 SLP167 T01280050
 
KMSV - Monticello, New York, USA
Distance from station: ENE 43mi, 69km
Updated: Sun, 05-Apr-2020 12:56 EDT
Overcast
Overcast
 Wind from WNW
Wind: WNW 10 mph , 17 km/h
Temperature: 57°F , 14°C
Dew Point: 43°F , 6°C
Humidity: 59%
Barometer: 30.01 inHg , 1016.3 hPa
Clouds: Overcast
Visibility: 10 miles , 16 km
Cloud details: Overcast 6000 ft
2020/04/05 16:56 KMSV 051656Z AUTO 29009KT 10SM OVC060 14/06 A3001 RMK AO2 SLP163 T01440061
KFWN - Sussex, New Jersey, USA
Distance from station: ESE 52mi, 84km
Updated: Sun, 05-Apr-2020 12:53 EDT
Mostly cloudy
Mostly cloudy
 Wind from SW
Wind: SW 8 mph , 13 km/h
Temperature: 64°F , 18°C
Dew Point: 43°F , 6°C
Humidity: 46%
Barometer: 29.99 inHg , 1015.6 hPa
Clouds: Mostly cloudy
Visibility: 10 miles , 16 km
Cloud details: Mostly cloudy 5500 ft
2020/04/05 16:53 KFWN 051653Z AUTO 22007KT 190V260 10SM BKN055 18/06 A2999 RMK AO2 SLP156 T01780061
 
K12N - Andover, New Jersey, USA
Distance from station: SE 54mi, 87km
Updated: Sun, 05-Apr-2020 12:54 EDT

 
Temperature: 64°F , 18°C
Dew Point: 45°F , 7°C
Humidity: 49%
Barometer: 30.00 inHg , 1015.9 hPa
2020/04/05 16:54 K12N 051654Z AUTO 18/07 A3000 RMK AO1 SLP161 T01780067
KBGM - Binghamton, New York, USA
Distance from station: NNW 55mi, 88km
Updated: Sun, 05-Apr-2020 12:53 EDT
Overcast
Overcast
 Wind from NW
Wind: NW 6 mph , 9 km/h
Temperature: 55°F , 13°C
Dew Point: 43°F , 6°C
Humidity: 63%
Barometer: 30.00 inHg , 1015.9 hPa
Clouds: Overcast
Visibility: 10 miles , 16 km
Cloud details: Few Clouds 2300 ft
Overcast 5000 ft
2020/04/05 16:53 KBGM 051653Z 32005KT 10SM FEW023 OVC050 13/06 A3000 RMK AO2 SLP163 T01280061
 
KABE - Allentown, Pennsylvania, USA
Distance from station: S 58mi, 94km
Updated: Sun, 05-Apr-2020 12:51 EDT
Overcast
Overcast
 Wind from W
Wind: W 13 mph , 20 km/h
Temperature: 64°F , 18°C
Dew Point: 43°F , 6°C
Humidity: 46%
Barometer: 30.03 inHg , 1016.9 hPa
Clouds: Overcast
Visibility: 10 miles , 16 km
Cloud details: Overcast 7000 ft
2020/04/05 16:51 KABE 051651Z 27011KT 10SM OVC070 18/06 A3003 RMK AO2 SLP167 T01830056 $
KXLL - Allentown Queen, Pennsylvania, USA
Distance from station: S 64mi, 103km
Updated: Sun, 05-Apr-2020 13:15 EDT
Overcast
Overcast
 Wind from W
Wind: W 10 mph , 17 km/h
Temperature: 63°F , 17°C
Dew Point: 45°F , 7°C
Humidity: 52%
Barometer: 30.04 inHg , 1017.3 hPa
Clouds: Overcast
Visibility: 10 miles , 16 km
Cloud details: Overcast 7000 ft
2020/04/05 17:15 KXLL 051715Z AUTO 27009KT 10SM OVC070 17/07 A3004 RMK AO2
 
KMGJ - Montgomery, New York, USA
Distance from station: E 67mi, 108km
Updated: Sun, 05-Apr-2020 12:54 EDT
Mostly cloudy
Mostly cloudy
 Wind from SSW
Wind: SSW 7 mph , 11 km/h
Temperature: 63°F , 17°C
Dew Point: 45°F , 7°C
Humidity: 52%
Barometer: 29.98 inHg , 1015.2 hPa
Clouds: Mostly cloudy
Visibility: 10 miles , 16 km
Cloud details: Few Clouds 7000 ft
Mostly cloudy 10000 ft
2020/04/05 16:54 KMGJ 051654Z AUTO 20006KT 10SM FEW070 BKN100 17/07 A2998 RMK AO2 SLP152 T01670067
KIPT - Williamsport, Pennsylvania, USA
Distance from station: WSW 72mi, 116km
Updated: Sun, 05-Apr-2020 12:54 EDT
Mostly cloudy
Mostly cloudy
 Wind from SSE
Wind: SSE 5 mph , 7 km/h
Temperature: 59°F , 15°C
Dew Point: 45°F , 7°C
Humidity: 59%
Barometer: 30.02 inHg , 1016.6 hPa
Clouds: Mostly cloudy
Visibility: 10 miles , 16 km
Cloud details: Mostly cloudy 8000 ft
2020/04/05 16:54 KIPT 051654Z 15004KT 10SM BKN080 15/07 A3002 RMK AO2 SLP167 T01500067
 
KUKT - Quakertown Arp, Pennsylvania, USA
Distance from station: S 74mi, 119km
Updated: Sun, 05-Apr-2020 13:15 EDT
Overcast
Overcast
 Wind from WNW
Wind: WNW 9 mph , 15 km/h
Temperature: 63°F , 17°C
Dew Point: 45°F , 7°C
Humidity: 52%
Barometer: 30.03 inHg , 1016.9 hPa
Clouds: Overcast
Visibility: 10 miles , 16 km
Cloud details: Few Clouds 5000 ft
Mostly cloudy 7000 ft
Overcast 8000 ft
2020/04/05 17:15 KUKT 051715Z AUTO 29008KT 10SM FEW050 BKN070 OVC080 17/07 A3003 RMK A01
KSMQ - Somerville, New Jersey, USA
Distance from station: SE 76mi, 123km
Updated: Sun, 05-Apr-2020 12:53 EDT
Partly cloudy
Partly cloudy
 Wind from varies
Wind: varies 3 mph , 6 km/h
Temperature: 64°F , 18°C
Dew Point: 46°F , 8°C
Humidity: 52%
Barometer: 30.00 inHg , 1015.9 hPa
Clouds: Partly cloudy
Visibility: 10 miles , 16 km
Cloud details: Few Clouds 4500 ft
Partly cloudy 7500 ft
2020/04/05 16:53 KSMQ 051653Z AUTO VRB03KT 10SM FEW045 SCT075 18/08 A3000 RMK AO2 SLP160 T01830078
 
KSWF - Newburgh/Stewart, New York, USA
Distance from station: E 77mi, 123km
Updated: Sun, 05-Apr-2020 12:45 EDT
Partly cloudy
Partly cloudy
 Wind from SSW
Wind: SSW 7 mph , 11 km/h
Temperature: 61°F , 16°C
Dew Point: 45°F , 7°C
Humidity: 55%
Barometer: 30.00 inHg , 1015.9 hPa
Clouds: Partly cloudy
Visibility: 10 miles , 16 km
Cloud details: Partly cloudy 6000 ft
2020/04/05 16:45 KSWF 051645Z 21006KT 10SM SCT060 16/07 A3000
KMMU - Morristown Muni, New Jersey, USA
Distance from station: SE 77mi, 124km
Updated: Sun, 05-Apr-2020 12:45 EDT
Mostly cloudy
Mostly cloudy
 Wind from SSW
Wind: SSW 7 mph , 11 km/h
Temperature: 63°F , 17°C
Dew Point: 48°F , 9°C
Humidity: 59%
Barometer: 30.02 inHg , 1016.6 hPa
Clouds: Mostly cloudy
Visibility: 10 miles , 16 km
Cloud details: Mostly cloudy 7000 ft
2020/04/05 16:45 KMMU 051645Z 21006KT 10SM BKN070 17/09 A3002
 
KCDW - Caldwell, New Jersey, USA
Distance from station: ESE 79mi, 127km
Updated: Sun, 05-Apr-2020 12:53 EDT
Partly cloudy
Partly cloudy
 Wind from calm
Wind: Calm
Temperature: 63°F , 17°C
Dew Point: 45°F , 7°C
Humidity: 52%
Barometer: 30.02 inHg , 1016.6 hPa
Clouds: Partly cloudy
Visibility: 10 miles , 16 km
Cloud details: Partly cloudy 7000 ft
2020/04/05 16:53 KCDW 051653Z 00000KT 10SM SCT070 17/07 A3002 RMK AO2 SLP172 T01720072
KRDG - Reading, Pennsylvania, USA
Distance from station: SSW 80mi, 130km
Updated: Sun, 05-Apr-2020 12:54 EDT
Overcast
Overcast
 Wind from W
Wind: W 12 mph , 19 km/h
Temperature: 64°F , 18°C
Dew Point: 45°F , 7°C
Humidity: 49%
Barometer: 30.03 inHg , 1016.9 hPa
Clouds: Overcast
Visibility: 10 miles , 16 km
Cloud details: Overcast 6500 ft
2020/04/05 16:54 KRDG 051654Z 27010KT 10SM OVC065 18/07 A3003 RMK AO2 SLP173 T01780072
 
KITH - Ithaca/Tompkins, New York, USA
Distance from station: NW 81mi, 131km
Updated: Sun, 05-Apr-2020 12:56 EDT
Overcast
Overcast
 Wind from WNW
Wind: WNW 6 mph , 9 km/h
Temperature: 54°F , 12°C
Dew Point: 45°F , 7°C
Humidity: 72%
Barometer: 30.03 inHg , 1016.9 hPa
Clouds: Overcast
Visibility: 10 miles , 16 km
Cloud details: Few Clouds 2200 ft
Overcast 5000 ft
2020/04/05 16:56 KITH 051656Z 30005KT 10SM FEW022 OVC050 12/07 A3003 RMK AO2 SLP173 T01220067
KSEG - Selinsgrove, Pennsylvania, USA
Distance from station: SW 82mi, 132km
Updated: Sun, 05-Apr-2020 12:53 EDT
Mostly cloudy
Mostly cloudy
 Wind from varies
Wind: varies 3 mph , 6 km/h
Temperature: 59°F , 15°C
Dew Point: 45°F , 7°C
Humidity: 59%
Barometer: 30.05 inHg , 1017.6 hPa
Clouds: Mostly cloudy
Visibility: 10 miles , 16 km
Cloud details: Mostly cloudy 9000 ft
2020/04/05 16:53 KSEG 051653Z AUTO VRB03KT 10SM BKN090 15/07 A3005 RMK AO2 SLP175 T01500072
 
KELM - Elmira, New York, USA
Distance from station: WNW 82mi, 133km
Updated: Sun, 05-Apr-2020 12:53 EDT
Overcast
Overcast
 Wind from calm
Wind: Calm
Temperature: 61°F , 16°C
Dew Point: 43°F , 6°C
Humidity: 52%
Barometer: 30.00 inHg , 1015.9 hPa
Clouds: Overcast
Visibility: 10 miles , 16 km
Cloud details: Mostly cloudy 4000 ft
Mostly cloudy 4700 ft
Overcast 5500 ft
2020/04/05 16:53 KELM 051653Z 00000KT 10SM BKN040 BKN047 OVC055 16/06 A3000 RMK AO2 SLP162 T01560061
KDYL - Doylestown, Pennsylvania, USA
Distance from station: SSE 83mi, 134km
Updated: Sun, 05-Apr-2020 12:54 EDT
Clear
Clear
 Wind from W
Wind: W 7 mph , 11 km/h
Temperature: 64°F , 18°C
Dew Point: 43°F , 6°C
Humidity: 46%
Barometer: 30.02 inHg , 1016.6 hPa
Clouds: Clear
Visibility: 10 miles , 16 km
2020/04/05 16:54 KDYL 051654Z AUTO 27006KT 10SM CLR 18/06 A3002 RMK AO2 SLP167 T01780061